Joan Del Cuadrat — EA3925 — position and weather

sailwx.info

Track history (hours):
 
Tides and Currents Weather Stations Pressure Air Temp Water Temp Dewpoint Dewpoint Depression Visibility Wind Speed Wind Dir Waves Ship Positions

Joan Del Cuadrat

Last reported at 2017-Nov-17 15:20 UTC. Time now 2017-Nov-21 19:09 UTC.
Position N 41°13' E 001°44'.

Length 21 m; draft 2 m.

Type: Fishing. MMSI: 224095230.

Date/timePositionNaut miles runAvg speedWind from/ knotsBaromVisibWave heightAir tempDewpointWater temp
2017-Nov-17 15:20N 41°13' E 001°44'0 0.0
2017-Nov-17 15:00N 41°13' E 001°44'0 0.0
2017-Nov-17 14:30N 41°13' E 001°44'0 0.1
2017-Nov-17 14:00N 41°13' E 001°44'1 2.4
2017-Nov-17 13:30N 41°12' E 001°46'3 0.4
2017-Nov-17 06:07N 41°12' E 001°49'111.0
2017-Nov-17 06:00N 41°12' E 001°47'3 5.6
2017-Nov-17 05:30N 41°13' E 001°44'0 0.0
2017-Nov-17 05:00N 41°13' E 001°44'0 0.0
2017-Nov-16 14:30N 41°13' E 001°44'0 0.0
2017-Nov-16 14:00N 41°13' E 001°44'1 3.0
2017-Nov-16 13:30N 41°12' E 001°46'2 0.2
2017-Nov-16 06:02N 41°11' E 001°48'010.9
2017-Nov-16 06:00N 41°11' E 001°47'3 5.6
2017-Nov-16 05:30N 41°13' E 001°44'0 0.1
2017-Nov-16 05:00N 41°13' E 001°44'0 0.0
2017-Nov-15 14:43N 41°13' E 001°44'0 0.0
2017-Nov-15 13:54N 41°13' E 001°44'0 0.0
2017-Nov-15 13:30N 41°13' E 001°44'2 3.7
2017-Nov-15 13:00N 41°12' E 001°42'4 0.7
2017-Nov-15 07:50N 41°08' E 001°42'1 3.1
2017-Nov-15 07:30N 41°09' E 001°43'4 2.1
2017-Nov-15 05:44N 41°12' E 001°44'1 3.6
2017-Nov-15 05:31N 41°13' E 001°44'0 0.0
2017-Nov-15 05:00N 41°13' E 001°44'0 0.0
2017-Nov-14 13:42N 41°13' E 001°44'0 0.0
2017-Nov-14 13:30N 41°13' E 001°44'0 0.1
2017-Nov-14 13:00N 41°13' E 001°44'4 8.5
2017-Nov-14 12:29N 41°09' E 001°42'1 0.3
2017-Nov-14 07:46N 41°08' E 001°40'2 3.2
2017-Nov-14 07:14N 41°08' E 001°42'1 3.3
2017-Nov-14 07:00N 41°09' E 001°43'2 3.1
2017-Nov-14 06:30N 41°09' E 001°45'1 2.9
2017-Nov-14 05:59N 41°10' E 001°46'3 6.2
2017-Nov-14 05:30N 41°13' E 001°44'0 0.0
2017-Nov-14 05:00N 41°13' E 001°44'  
2017-Nov-10 14:32N 41°13' E 001°44'0 0.0
2017-Nov-10 14:30N 41°13' E 001°44'0 0.0
2017-Nov-10 14:00N 41°13' E 001°44'1 2.6
2017-Nov-10 13:30N 41°12' E 001°46'2 0.2
2017-Nov-10 06:01N 41°12' E 001°47'010.2
2017-Nov-10 06:00N 41°12' E 001°47'3 5.3
2017-Nov-10 05:30N 41°13' E 001°44'0 0.3
2017-Nov-10 05:00N 41°13' E 001°44'0 0.0
2017-Nov-09 16:30N 41°13' E 001°44'4 0.3
2017-Nov-09 06:05N 41°12' E 001°49'110.7
2017-Nov-09 06:00N 41°12' E 001°47'3 5.2
2017-Nov-09 05:30N 41°13' E 001°44'0 0.0
2017-Nov-09 05:00N 41°13' E 001°44'0 0.0
2017-Nov-08 14:17N 41°13' E 001°44'0 0.0
2017-Nov-08 14:00N 41°13' E 001°44'0 0.2
2017-Nov-08 13:30N 41°13' E 001°44'1 0.1
2017-Nov-08 05:41N 41°12' E 001°44'1 3.8
2017-Nov-08 05:31N 41°13' E 001°44'0 0.0
2017-Nov-08 05:00N 41°13' E 001°44'  
Track history (hours):
 
Tides and Currents Weather Stations Pressure Air Temp Water Temp Dewpoint Dewpoint Depression Visibility Wind Speed Wind Dir Waves Ship Positions

Joan Del Cuadrat

Last reported at 2017-Nov-17 15:20 UTC. Time now 2017-Nov-21 19:09 UTC.
Position N 41°13' E 001°44'.

Length 21 m; draft 2 m.

Type: Fishing. MMSI: 224095230.

Date/timePositionNaut miles runAvg speedWind from/ knotsBaromVisibWave heightAir tempDewpointWater temp
2017-Nov-17 15:20N 41°13' E 001°44'0 0.0
2017-Nov-17 15:00N 41°13' E 001°44'0 0.0
2017-Nov-17 14:30N 41°13' E 001°44'0 0.1
2017-Nov-17 14:00N 41°13' E 001°44'1 2.4
2017-Nov-17 13:30N 41°12' E 001°46'3 0.4
2017-Nov-17 06:07N 41°12' E 001°49'111.0
2017-Nov-17 06:00N 41°12' E 001°47'3 5.6
2017-Nov-17 05:30N 41°13' E 001°44'0 0.0
2017-Nov-17 05:00N 41°13' E 001°44'0 0.0
2017-Nov-16 14:30N 41°13' E 001°44'0 0.0
2017-Nov-16 14:00N 41°13' E 001°44'1 3.0
2017-Nov-16 13:30N 41°12' E 001°46'2 0.2
2017-Nov-16 06:02N 41°11' E 001°48'010.9
2017-Nov-16 06:00N 41°11' E 001°47'3 5.6
2017-Nov-16 05:30N 41°13' E 001°44'0 0.1
2017-Nov-16 05:00N 41°13' E 001°44'0 0.0
2017-Nov-15 14:43N 41°13' E 001°44'0 0.0
2017-Nov-15 13:54N 41°13' E 001°44'0 0.0
2017-Nov-15 13:30N 41°13' E 001°44'2 3.7
2017-Nov-15 13:00N 41°12' E 001°42'4 0.7
2017-Nov-15 07:50N 41°08' E 001°42'1 3.1
2017-Nov-15 07:30N 41°09' E 001°43'4 2.1
2017-Nov-15 05:44N 41°12' E 001°44'1 3.6
2017-Nov-15 05:31N 41°13' E 001°44'0 0.0
2017-Nov-15 05:00N 41°13' E 001°44'0 0.0
2017-Nov-14 13:42N 41°13' E 001°44'0 0.0
2017-Nov-14 13:30N 41°13' E 001°44'0 0.1
2017-Nov-14 13:00N 41°13' E 001°44'4 8.5
2017-Nov-14 12:29N 41°09' E 001°42'1 0.3
2017-Nov-14 07:46N 41°08' E 001°40'2 3.2
2017-Nov-14 07:14N 41°08' E 001°42'1 3.3
2017-Nov-14 07:00N 41°09' E 001°43'2 3.1
2017-Nov-14 06:30N 41°09' E 001°45'1 2.9
2017-Nov-14 05:59N 41°10' E 001°46'3 6.2
2017-Nov-14 05:30N 41°13' E 001°44'0 0.0
2017-Nov-14 05:00N 41°13' E 001°44'  
2017-Nov-10 14:32N 41°13' E 001°44'0 0.0
2017-Nov-10 14:30N 41°13' E 001°44'0 0.0
2017-Nov-10 14:00N 41°13' E 001°44'1 2.6
2017-Nov-10 13:30N 41°12' E 001°46'2 0.2
2017-Nov-10 06:01N 41°12' E 001°47'010.2
2017-Nov-10 06:00N 41°12' E 001°47'3 5.3
2017-Nov-10 05:30N 41°13' E 001°44'0 0.3
2017-Nov-10 05:00N 41°13' E 001°44'0 0.0
2017-Nov-09 16:30N 41°13' E 001°44'4 0.3
2017-Nov-09 06:05N 41°12' E 001°49'110.7
2017-Nov-09 06:00N 41°12' E 001°47'3 5.2
2017-Nov-09 05:30N 41°13' E 001°44'0 0.0
2017-Nov-09 05:00N 41°13' E 001°44'0 0.0
2017-Nov-08 14:17N 41°13' E 001°44'0 0.0
2017-Nov-08 14:00N 41°13' E 001°44'0 0.2
2017-Nov-08 13:30N 41°13' E 001°44'1 0.1
2017-Nov-08 05:41N 41°12' E 001°44'1 3.8
2017-Nov-08 05:31N 41°13' E 001°44'0 0.0
2017-Nov-08 05:00N 41°13' E 001°44'  

Dump ship's entire track history